sensor_id;sensor_type;location;lat;lon;timestamp;temperature;humidity
4548;DHT22;2286;51.570;7.090;2023-03-04T00:02:23;5.80;99.90
4548;DHT22;2286;51.570;7.090;2023-03-04T00:04:49;5.80;99.90
4548;DHT22;2286;51.570;7.090;2023-03-04T00:07:16;5.80;99.90
4548;DHT22;2286;51.570;7.090;2023-03-04T00:09:43;5.80;99.90
4548;DHT22;2286;51.570;7.090;2023-03-04T00:12:11;5.80;99.90
4548;DHT22;2286;51.570;7.090;2023-03-04T00:14:40;5.80;99.90
4548;DHT22;2286;51.570;7.090;2023-03-04T00:17:07;5.80;99.90
4548;DHT22;2286;51.570;7.090;2023-03-04T00:19:34;5.80;99.90
4548;DHT22;2286;51.570;7.090;2023-03-04T00:22:02;5.80;99.90
4548;DHT22;2286;51.570;7.090;2023-03-04T00:24:29;5.80;99.90
4548;DHT22;2286;51.570;7.090;2023-03-04T00:26:56;5.80;99.90
4548;DHT22;2286;51.570;7.090;2023-03-04T00:29:23;5.80;99.90
4548;DHT22;2286;51.570;7.090;2023-03-04T00:31:51;5.80;99.90
4548;DHT22;2286;51.570;7.090;2023-03-04T00:34:18;5.80;99.90
4548;DHT22;2286;51.570;7.090;2023-03-04T00:36:45;5.80;99.90
4548;DHT22;2286;51.570;7.090;2023-03-04T00:39:12;5.70;99.90
4548;DHT22;2286;51.570;7.090;2023-03-04T00:41:39;5.80;99.90
4548;DHT22;2286;51.570;7.090;2023-03-04T00:44:06;5.80;99.90
4548;DHT22;2286;51.570;7.090;2023-03-04T00:46:33;5.80;99.90
4548;DHT22;2286;51.570;7.090;2023-03-04T00:49:01;5.80;99.90
4548;DHT22;2286;51.570;7.090;2023-03-04T00:51:28;5.70;99.90
4548;DHT22;2286;51.570;7.090;2023-03-04T00:53:55;5.70;99.90
4548;DHT22;2286;51.570;7.090;2023-03-04T00:56:22;5.70;99.90
4548;DHT22;2286;51.570;7.090;2023-03-04T00:58:49;5.80;99.90
4548;DHT22;2286;51.570;7.090;2023-03-04T01:01:16;5.80;99.90
4548;DHT22;2286;51.570;7.090;2023-03-04T01:03:43;5.80;99.90
4548;DHT22;2286;51.570;7.090;2023-03-04T01:06:11;5.80;99.90
4548;DHT22;2286;51.570;7.090;2023-03-04T01:08:39;5.80;99.90
4548;DHT22;2286;51.570;7.090;2023-03-04T01:11:06;5.70;99.90
4548;DHT22;2286;51.570;7.090;2023-03-04T01:13:33;5.70;99.90
4548;DHT22;2286;51.570;7.090;2023-03-04T01:16:00;5.80;99.90
4548;DHT22;2286;51.570;7.090;2023-03-04T01:18:28;5.80;99.90
4548;DHT22;2286;51.570;7.090;2023-03-04T01:20:55;5.70;99.90
4548;DHT22;2286;51.570;7.090;2023-03-04T01:23:24;5.70;99.90
4548;DHT22;2286;51.570;7.090;2023-03-04T01:25:51;5.80;99.90
4548;DHT22;2286;51.570;7.090;2023-03-04T01:28:18;5.70;99.90
4548;DHT22;2286;51.570;7.090;2023-03-04T01:30:45;5.60;99.90
4548;DHT22;2286;51.570;7.090;2023-03-04T01:33:12;5.70;99.90
4548;DHT22;2286;51.570;7.090;2023-03-04T01:35:39;5.60;99.90
4548;DHT22;2286;51.570;7.090;2023-03-04T01:38:06;5.60;99.90
4548;DHT22;2286;51.570;7.090;2023-03-04T01:40:34;5.60;99.90
4548;DHT22;2286;51.570;7.090;2023-03-04T01:43:01;5.50;99.90
4548;DHT22;2286;51.570;7.090;2023-03-04T01:45:28;5.50;99.90
4548;DHT22;2286;51.570;7.090;2023-03-04T01:47:56;5.60;99.90
4548;DHT22;2286;51.570;7.090;2023-03-04T01:50:27;5.60;99.90
4548;DHT22;2286;51.570;7.090;2023-03-04T01:52:56;5.60;99.90
4548;DHT22;2286;51.570;7.090;2023-03-04T01:55:23;5.70;99.90
4548;DHT22;2286;51.570;7.090;2023-03-04T01:57:52;5.70;99.90
4548;DHT22;2286;51.570;7.090;2023-03-04T02:00:28;5.70;99.90
4548;DHT22;2286;51.570;7.090;2023-03-04T02:02:58;5.60;99.90
4548;DHT22;2286;51.570;7.090;2023-03-04T02:05:26;5.60;99.90
4548;DHT22;2286;51.570;7.090;2023-03-04T02:07:54;5.60;99.90
4548;DHT22;2286;51.570;7.090;2023-03-04T02:10:22;5.50;99.90
4548;DHT22;2286;51.570;7.090;2023-03-04T02:12:52;5.50;99.90
4548;DHT22;2286;51.570;7.090;2023-03-04T02:15:19;5.50;99.90
4548;DHT22;2286;51.570;7.090;2023-03-04T02:17:47;5.50;99.90
4548;DHT22;2286;51.570;7.090;2023-03-04T02:20:24;5.60;99.90
4548;DHT22;2286;51.570;7.090;2023-03-04T02:23:00;5.50;99.90
4548;DHT22;2286;51.570;7.090;2023-03-04T02:25:34;5.50;99.90
4548;DHT22;2286;51.570;7.090;2023-03-04T02:28:04;5.50;99.90
4548;DHT22;2286;51.570;7.090;2023-03-04T02:30:31;5.50;99.90
4548;DHT22;2286;51.570;7.090;2023-03-04T02:32:59;5.50;99.90
4548;DHT22;2286;51.570;7.090;2023-03-04T02:35:26;5.60;99.90
4548;DHT22;2286;51.570;7.090;2023-03-04T02:37:53;5.50;99.90
4548;DHT22;2286;51.570;7.090;2023-03-04T02:40:23;5.50;99.90
4548;DHT22;2286;51.570;7.090;2023-03-04T02:42:52;5.50;99.90
4548;DHT22;2286;51.570;7.090;2023-03-04T02:45:36;5.50;99.90
4548;DHT22;2286;51.570;7.090;2023-03-04T02:48:03;5.50;99.90
4548;DHT22;2286;51.570;7.090;2023-03-04T02:50:34;5.50;99.90
4548;DHT22;2286;51.570;7.090;2023-03-04T02:53:02;5.50;99.90
4548;DHT22;2286;51.570;7.090;2023-03-04T02:55:29;5.50;99.90
4548;DHT22;2286;51.570;7.090;2023-03-04T02:57:56;5.50;99.90
4548;DHT22;2286;51.570;7.090;2023-03-04T03:00:23;5.50;99.90
4548;DHT22;2286;51.570;7.090;2023-03-04T03:02:52;5.50;99.90
4548;DHT22;2286;51.570;7.090;2023-03-04T03:05:19;5.50;99.90
4548;DHT22;2286;51.570;7.090;2023-03-04T03:07:46;5.50;99.90
4548;DHT22;2286;51.570;7.090;2023-03-04T03:10:13;5.40;99.90
4548;DHT22;2286;51.570;7.090;2023-03-04T03:12:40;5.40;99.90
4548;DHT22;2286;51.570;7.090;2023-03-04T03:15:07;5.40;99.90
4548;DHT22;2286;51.570;7.090;2023-03-04T03:17:34;5.40;99.90
4548;DHT22;2286;51.570;7.090;2023-03-04T03:20:03;5.40;99.90
4548;DHT22;2286;51.570;7.090;2023-03-04T03:22:30;5.40;99.90
4548;DHT22;2286;51.570;7.090;2023-03-04T03:24:57;5.40;99.90
4548;DHT22;2286;51.570;7.090;2023-03-04T03:27:24;5.40;99.90
4548;DHT22;2286;51.570;7.090;2023-03-04T03:29:51;5.40;99.90
4548;DHT22;2286;51.570;7.090;2023-03-04T03:32:18;5.40;99.90
4548;DHT22;2286;51.570;7.090;2023-03-04T03:34:45;5.40;99.90
4548;DHT22;2286;51.570;7.090;2023-03-04T03:37:13;5.40;99.90
4548;DHT22;2286;51.570;7.090;2023-03-04T03:39:40;5.50;99.90
4548;DHT22;2286;51.570;7.090;2023-03-04T03:42:07;5.40;99.90
4548;DHT22;2286;51.570;7.090;2023-03-04T03:44:34;5.50;99.90
4548;DHT22;2286;51.570;7.090;2023-03-04T03:47:01;5.40;99.90
4548;DHT22;2286;51.570;7.090;2023-03-04T03:49:28;5.40;99.90
4548;DHT22;2286;51.570;7.090;2023-03-04T03:51:55;5.30;99.90
4548;DHT22;2286;51.570;7.090;2023-03-04T03:54:24;5.40;99.90
4548;DHT22;2286;51.570;7.090;2023-03-04T03:56:51;5.30;99.90
4548;DHT22;2286;51.570;7.090;2023-03-04T03:59:17;5.30;99.90
4548;DHT22;2286;51.570;7.090;2023-03-04T04:01:44;5.30;99.90
4548;DHT22;2286;51.570;7.090;2023-03-04T04:04:11;5.30;99.90
4548;DHT22;2286;51.570;7.090;2023-03-04T04:06:38;5.30;99.90
4548;DHT22;2286;51.570;7.090;2023-03-04T04:09:05;5.40;99.90
4548;DHT22;2286;51.570;7.090;2023-03-04T04:11:33;5.30;99.90
4548;DHT22;2286;51.570;7.090;2023-03-04T04:14:00;5.30;99.90
4548;DHT22;2286;51.570;7.090;2023-03-04T04:16:26;5.30;99.90
4548;DHT22;2286;51.570;7.090;2023-03-04T04:18:53;5.30;99.90
4548;DHT22;2286;51.570;7.090;2023-03-04T04:21:20;5.30;99.90
4548;DHT22;2286;51.570;7.090;2023-03-04T04:23:47;5.30;99.90
4548;DHT22;2286;51.570;7.090;2023-03-04T04:26:14;5.30;99.90
4548;DHT22;2286;51.570;7.090;2023-03-04T04:28:42;5.30;99.90
4548;DHT22;2286;51.570;7.090;2023-03-04T04:31:09;5.30;99.90
4548;DHT22;2286;51.570;7.090;2023-03-04T04:33:36;5.40;99.90
4548;DHT22;2286;51.570;7.090;2023-03-04T04:36:04;5.40;99.90
4548;DHT22;2286;51.570;7.090;2023-03-04T04:38:31;5.40;99.90
4548;DHT22;2286;51.570;7.090;2023-03-04T04:40:58;5.40;99.90
4548;DHT22;2286;51.570;7.090;2023-03-04T04:43:25;5.40;99.90
4548;DHT22;2286;51.570;7.090;2023-03-04T04:45:55;5.40;99.90
4548;DHT22;2286;51.570;7.090;2023-03-04T04:48:24;5.40;99.90
4548;DHT22;2286;51.570;7.090;2023-03-04T04:50:53;5.40;99.90
4548;DHT22;2286;51.570;7.090;2023-03-04T04:53:21;5.30;99.90
4548;DHT22;2286;51.570;7.090;2023-03-04T04:55:48;5.30;99.90
4548;DHT22;2286;51.570;7.090;2023-03-04T04:58:14;5.30;99.90
4548;DHT22;2286;51.570;7.090;2023-03-04T05:00:41;5.30;99.90
4548;DHT22;2286;51.570;7.090;2023-03-04T05:03:09;5.30;99.90
4548;DHT22;2286;51.570;7.090;2023-03-04T05:05:36;5.30;99.90
4548;DHT22;2286;51.570;7.090;2023-03-04T05:08:04;5.30;99.90
4548;DHT22;2286;51.570;7.090;2023-03-04T05:10:31;5.30;99.90
4548;DHT22;2286;51.570;7.090;2023-03-04T05:12:57;5.30;99.90
4548;DHT22;2286;51.570;7.090;2023-03-04T05:15:24;5.30;99.90
4548;DHT22;2286;51.570;7.090;2023-03-04T05:17:51;5.30;99.90
4548;DHT22;2286;51.570;7.090;2023-03-04T05:20:19;5.30;99.90
4548;DHT22;2286;51.570;7.090;2023-03-04T05:22:48;5.30;99.90
4548;DHT22;2286;51.570;7.090;2023-03-04T05:25:15;5.30;99.90
4548;DHT22;2286;51.570;7.090;2023-03-04T05:27:42;5.30;99.90
4548;DHT22;2286;51.570;7.090;2023-03-04T05:30:10;5.30;99.90
4548;DHT22;2286;51.570;7.090;2023-03-04T05:32:37;5.30;99.90
4548;DHT22;2286;51.570;7.090;2023-03-04T05:35:04;5.30;99.90
4548;DHT22;2286;51.570;7.090;2023-03-04T05:37:33;5.30;99.90
4548;DHT22;2286;51.570;7.090;2023-03-04T05:39:59;5.30;99.90
4548;DHT22;2286;51.570;7.090;2023-03-04T05:42:26;5.30;99.90
4548;DHT22;2286;51.570;7.090;2023-03-04T05:44:53;5.20;99.90
4548;DHT22;2286;51.570;7.090;2023-03-04T05:47:20;5.30;99.90
4548;DHT22;2286;51.570;7.090;2023-03-04T05:49:47;5.20;99.90
4548;DHT22;2286;51.570;7.090;2023-03-04T05:52:14;5.20;99.90
4548;DHT22;2286;51.570;7.090;2023-03-04T05:54:42;5.20;99.90
4548;DHT22;2286;51.570;7.090;2023-03-04T05:57:09;5.30;99.90
4548;DHT22;2286;51.570;7.090;2023-03-04T05:59:36;5.20;99.90
4548;DHT22;2286;51.570;7.090;2023-03-04T06:02:03;5.30;99.90
4548;DHT22;2286;51.570;7.090;2023-03-04T06:04:29;5.20;99.90
4548;DHT22;2286;51.570;7.090;2023-03-04T06:06:56;5.20;99.90
4548;DHT22;2286;51.570;7.090;2023-03-04T06:09:23;5.20;99.90
4548;DHT22;2286;51.570;7.090;2023-03-04T06:11:51;5.20;99.90
4548;DHT22;2286;51.570;7.090;2023-03-04T06:14:18;5.20;99.90
4548;DHT22;2286;51.570;7.090;2023-03-04T06:16:45;5.20;99.90
4548;DHT22;2286;51.570;7.090;2023-03-04T06:19:12;5.20;99.90
4548;DHT22;2286;51.570;7.090;2023-03-04T06:21:39;5.30;99.90
4548;DHT22;2286;51.570;7.090;2023-03-04T06:24:06;5.20;99.90
4548;DHT22;2286;51.570;7.090;2023-03-04T06:26:32;5.20;99.90
4548;DHT22;2286;51.570;7.090;2023-03-04T06:29:01;5.20;99.90
4548;DHT22;2286;51.570;7.090;2023-03-04T06:31:27;5.20;99.90
4548;DHT22;2286;51.570;7.090;2023-03-04T06:33:54;5.30;99.90
4548;DHT22;2286;51.570;7.090;2023-03-04T06:36:21;5.20;99.90
4548;DHT22;2286;51.570;7.090;2023-03-04T06:38:48;5.20;99.90
4548;DHT22;2286;51.570;7.090;2023-03-04T06:41:15;5.20;99.90
4548;DHT22;2286;51.570;7.090;2023-03-04T06:43:42;5.30;99.90
4548;DHT22;2286;51.570;7.090;2023-03-04T06:46:10;5.30;99.90
4548;DHT22;2286;51.570;7.090;2023-03-04T06:48:37;5.30;99.90
4548;DHT22;2286;51.570;7.090;2023-03-04T06:51:05;5.30;99.90
4548;DHT22;2286;51.570;7.090;2023-03-04T06:53:32;5.30;99.90
4548;DHT22;2286;51.570;7.090;2023-03-04T06:55:59;5.30;99.90
4548;DHT22;2286;51.570;7.090;2023-03-04T06:58:26;5.20;99.90
4548;DHT22;2286;51.570;7.090;2023-03-04T07:00:52;5.30;99.90
4548;DHT22;2286;51.570;7.090;2023-03-04T07:03:21;5.30;99.90
4548;DHT22;2286;51.570;7.090;2023-03-04T07:05:48;5.30;99.90
4548;DHT22;2286;51.570;7.090;2023-03-04T07:08:15;5.30;99.90
4548;DHT22;2286;51.570;7.090;2023-03-04T07:10:41;5.30;99.90
4548;DHT22;2286;51.570;7.090;2023-03-04T07:13:08;5.30;99.90
4548;DHT22;2286;51.570;7.090;2023-03-04T07:15:36;5.40;99.90
4548;DHT22;2286;51.570;7.090;2023-03-04T07:18:03;5.40;99.90
4548;DHT22;2286;51.570;7.090;2023-03-04T07:20:31;5.40;99.90
4548;DHT22;2286;51.570;7.090;2023-03-04T07:22:58;5.40;99.90
4548;DHT22;2286;51.570;7.090;2023-03-04T07:25:25;5.40;99.90
4548;DHT22;2286;51.570;7.090;2023-03-04T07:27:53;5.30;99.90
4548;DHT22;2286;51.570;7.090;2023-03-04T07:30:20;5.30;99.90
4548;DHT22;2286;51.570;7.090;2023-03-04T07:32:47;5.40;99.90
4548;DHT22;2286;51.570;7.090;2023-03-04T07:35:14;5.40;99.90
4548;DHT22;2286;51.570;7.090;2023-03-04T07:37:42;5.40;99.90
4548;DHT22;2286;51.570;7.090;2023-03-04T07:40:10;5.40;99.90
4548;DHT22;2286;51.570;7.090;2023-03-04T07:42:38;5.50;99.90
4548;DHT22;2286;51.570;7.090;2023-03-04T07:45:05;5.50;99.90
4548;DHT22;2286;51.570;7.090;2023-03-04T07:47:33;5.50;99.90
4548;DHT22;2286;51.570;7.090;2023-03-04T07:49:59;5.60;99.90
4548;DHT22;2286;51.570;7.090;2023-03-04T07:52:26;5.80;99.90
4548;DHT22;2286;51.570;7.090;2023-03-04T07:54:54;5.90;99.90
4548;DHT22;2286;51.570;7.090;2023-03-04T07:57:21;6.20;99.90
4548;DHT22;2286;51.570;7.090;2023-03-04T07:59:48;6.20;99.90
4548;DHT22;2286;51.570;7.090;2023-03-04T08:02:15;6.30;99.90
4548;DHT22;2286;51.570;7.090;2023-03-04T08:04:42;6.20;99.90
4548;DHT22;2286;51.570;7.090;2023-03-04T08:07:09;6.10;99.90
4548;DHT22;2286;51.570;7.090;2023-03-04T08:09:35;6.20;99.90
4548;DHT22;2286;51.570;7.090;2023-03-04T08:12:04;6.30;99.90
4548;DHT22;2286;51.570;7.090;2023-03-04T08:14:31;6.30;99.90
4548;DHT22;2286;51.570;7.090;2023-03-04T08:16:58;6.50;99.90
4548;DHT22;2286;51.570;7.090;2023-03-04T08:19:25;6.70;99.90
4548;DHT22;2286;51.570;7.090;2023-03-04T08:21:52;6.70;99.90
4548;DHT22;2286;51.570;7.090;2023-03-04T08:24:19;6.80;99.90
4548;DHT22;2286;51.570;7.090;2023-03-04T08:26:48;6.70;99.90
4548;DHT22;2286;51.570;7.090;2023-03-04T08:29:18;6.80;99.90
4548;DHT22;2286;51.570;7.090;2023-03-04T08:31:46;6.80;99.90
4548;DHT22;2286;51.570;7.090;2023-03-04T08:34:13;6.80;99.90
4548;DHT22;2286;51.570;7.090;2023-03-04T08:36:40;6.70;99.90
4548;DHT22;2286;51.570;7.090;2023-03-04T08:39:10;6.70;99.90
4548;DHT22;2286;51.570;7.090;2023-03-04T08:41:37;6.80;99.90
4548;DHT22;2286;51.570;7.090;2023-03-04T08:44:04;6.60;99.90
4548;DHT22;2286;51.570;7.090;2023-03-04T08:46:34;6.60;99.90
4548;DHT22;2286;51.570;7.090;2023-03-04T08:49:01;6.60;99.90
4548;DHT22;2286;51.570;7.090;2023-03-04T08:51:28;6.50;99.90
4548;DHT22;2286;51.570;7.090;2023-03-04T08:53:55;6.50;99.90
4548;DHT22;2286;51.570;7.090;2023-03-04T08:56:22;6.40;99.90
4548;DHT22;2286;51.570;7.090;2023-03-04T08:58:49;6.50;99.90
4548;DHT22;2286;51.570;7.090;2023-03-04T09:01:15;6.40;99.90
4548;DHT22;2286;51.570;7.090;2023-03-04T09:03:44;6.30;99.90
4548;DHT22;2286;51.570;7.090;2023-03-04T09:06:13;6.30;99.90
4548;DHT22;2286;51.570;7.090;2023-03-04T09:08:40;6.30;99.90
4548;DHT22;2286;51.570;7.090;2023-03-04T09:11:07;6.50;99.90
4548;DHT22;2286;51.570;7.090;2023-03-04T09:13:34;6.50;99.90
4548;DHT22;2286;51.570;7.090;2023-03-04T09:16:01;6.50;99.90
4548;DHT22;2286;51.570;7.090;2023-03-04T09:18:28;6.50;99.90
4548;DHT22;2286;51.570;7.090;2023-03-04T09:20:56;6.40;99.90
4548;DHT22;2286;51.570;7.090;2023-03-04T09:23:23;6.40;99.90
4548;DHT22;2286;51.570;7.090;2023-03-04T09:25:50;6.40;99.90
4548;DHT22;2286;51.570;7.090;2023-03-04T09:28:18;6.60;99.90
4548;DHT22;2286;51.570;7.090;2023-03-04T09:30:45;6.70;99.90
4548;DHT22;2286;51.570;7.090;2023-03-04T09:33:13;6.80;99.90
4548;DHT22;2286;51.570;7.090;2023-03-04T09:35:40;6.80;99.90
4548;DHT22;2286;51.570;7.090;2023-03-04T09:38:08;6.70;99.90
4548;DHT22;2286;51.570;7.090;2023-03-04T09:40:38;6.70;99.90
4548;DHT22;2286;51.570;7.090;2023-03-04T09:43:11;6.70;99.90
4548;DHT22;2286;51.570;7.090;2023-03-04T09:45:45;6.80;99.90
4548;DHT22;2286;51.570;7.090;2023-03-04T09:48:15;6.80;99.90
4548;DHT22;2286;51.570;7.090;2023-03-04T09:50:51;6.90;99.90
4548;DHT22;2286;51.570;7.090;2023-03-04T09:53:26;6.70;99.90
4548;DHT22;2286;51.570;7.090;2023-03-04T09:55:57;6.60;99.90
4548;DHT22;2286;51.570;7.090;2023-03-04T09:58:31;6.70;99.90
4548;DHT22;2286;51.570;7.090;2023-03-04T10:01:09;6.90;99.90
4548;DHT22;2286;51.570;7.090;2023-03-04T10:03:42;7.00;99.90
4548;DHT22;2286;51.570;7.090;2023-03-04T10:06:10;7.20;99.90
4548;DHT22;2286;51.570;7.090;2023-03-04T10:08:45;7.40;99.90
4548;DHT22;2286;51.570;7.090;2023-03-04T10:11:17;7.50;99.90
4548;DHT22;2286;51.570;7.090;2023-03-04T10:13:53;7.40;99.90
4548;DHT22;2286;51.570;7.090;2023-03-04T10:16:25;7.50;99.90
4548;DHT22;2286;51.570;7.090;2023-03-04T10:18:55;7.60;99.90
4548;DHT22;2286;51.570;7.090;2023-03-04T10:21:29;7.50;99.90
4548;DHT22;2286;51.570;7.090;2023-03-04T10:23:59;7.60;99.90
4548;DHT22;2286;51.570;7.090;2023-03-04T10:26:29;7.70;99.90
4548;DHT22;2286;51.570;7.090;2023-03-04T10:28:58;7.70;99.90
4548;DHT22;2286;51.570;7.090;2023-03-04T10:31:32;7.70;99.90
4548;DHT22;2286;51.570;7.090;2023-03-04T10:34:01;7.70;99.90
4548;DHT22;2286;51.570;7.090;2023-03-04T10:36:43;7.50;99.90
4548;DHT22;2286;51.570;7.090;2023-03-04T10:39:18;7.30;99.90
4548;DHT22;2286;51.570;7.090;2023-03-04T10:41:54;7.20;99.90
4548;DHT22;2286;51.570;7.090;2023-03-04T10:44:22;7.10;99.90
4548;DHT22;2286;51.570;7.090;2023-03-04T10:46:50;7.00;99.90
4548;DHT22;2286;51.570;7.090;2023-03-04T10:49:19;7.10;99.90
4548;DHT22;2286;51.570;7.090;2023-03-04T10:51:47;6.90;99.90
4548;DHT22;2286;51.570;7.090;2023-03-04T10:54:24;7.00;99.90
4548;DHT22;2286;51.570;7.090;2023-03-04T10:56:54;7.00;99.90
4548;DHT22;2286;51.570;7.090;2023-03-04T10:59:35;7.10;99.90
4548;DHT22;2286;51.570;7.090;2023-03-04T11:02:14;7.20;99.90
4548;DHT22;2286;51.570;7.090;2023-03-04T11:04:41;7.20;99.90
4548;DHT22;2286;51.570;7.090;2023-03-04T11:07:08;7.20;99.90
4548;DHT22;2286;51.570;7.090;2023-03-04T11:09:37;7.20;99.90
4548;DHT22;2286;51.570;7.090;2023-03-04T11:12:10;7.20;99.90
4548;DHT22;2286;51.570;7.090;2023-03-04T11:14:39;7.30;99.90
4548;DHT22;2286;51.570;7.090;2023-03-04T11:17:17;7.30;99.90
4548;DHT22;2286;51.570;7.090;2023-03-04T11:19:47;7.40;99.90
4548;DHT22;2286;51.570;7.090;2023-03-04T11:22:19;7.40;1.00
4548;DHT22;2286;51.570;7.090;2023-03-04T11:24:55;7.50;1.00
4548;DHT22;2286;51.570;7.090;2023-03-04T11:27:30;7.50;1.00
4548;DHT22;2286;51.570;7.090;2023-03-04T11:30:02;7.60;1.00
4548;DHT22;2286;51.570;7.090;2023-03-04T11:32:33;7.80;1.00
4548;DHT22;2286;51.570;7.090;2023-03-04T11:35:11;8.00;1.00
4548;DHT22;2286;51.570;7.090;2023-03-04T11:37:46;8.10;1.00
4548;DHT22;2286;51.570;7.090;2023-03-04T11:40:24;8.10;99.90
4548;DHT22;2286;51.570;7.090;2023-03-04T11:42:54;7.90;99.90
4548;DHT22;2286;51.570;7.090;2023-03-04T11:45:30;7.70;99.90
4548;DHT22;2286;51.570;7.090;2023-03-04T11:48:07;7.50;1.00
4548;DHT22;2286;51.570;7.090;2023-03-04T11:50:44;7.30;1.00
4548;DHT22;2286;51.570;7.090;2023-03-04T11:53:28;7.30;1.00
4548;DHT22;2286;51.570;7.090;2023-03-04T11:56:26;7.20;1.00
4548;DHT22;2286;51.570;7.090;2023-03-04T11:59:28;7.20;1.00
4548;DHT22;2286;51.570;7.090;2023-03-04T12:02:11;7.20;1.00
4548;DHT22;2286;51.570;7.090;2023-03-04T12:05:09;7.20;1.00
4548;DHT22;2286;51.570;7.090;2023-03-04T12:07:48;7.20;1.00
4548;DHT22;2286;51.570;7.090;2023-03-04T12:10:24;7.30;1.00
4548;DHT22;2286;51.570;7.090;2023-03-04T12:13:06;7.30;1.00
4548;DHT22;2286;51.570;7.090;2023-03-04T12:15:43;7.30;1.00
4548;DHT22;2286;51.570;7.090;2023-03-04T12:18:20;7.20;1.00
4548;DHT22;2286;51.570;7.090;2023-03-04T12:21:09;7.30;1.00
4548;DHT22;2286;51.570;7.090;2023-03-04T12:23:57;7.40;1.00
4548;DHT22;2286;51.570;7.090;2023-03-04T12:26:29;7.60;1.00
4548;DHT22;2286;51.570;7.090;2023-03-04T12:29:04;7.50;1.00
4548;DHT22;2286;51.570;7.090;2023-03-04T12:31:35;7.40;1.00
4548;DHT22;2286;51.570;7.090;2023-03-04T12:34:25;7.40;1.00
4548;DHT22;2286;51.570;7.090;2023-03-04T12:37:03;7.40;1.00
4548;DHT22;2286;51.570;7.090;2023-03-04T12:39:38;7.50;1.00
4548;DHT22;2286;51.570;7.090;2023-03-04T12:42:12;7.50;1.00
4548;DHT22;2286;51.570;7.090;2023-03-04T12:44:47;7.50;1.00
4548;DHT22;2286;51.570;7.090;2023-03-04T12:47:29;7.30;1.00
4548;DHT22;2286;51.570;7.090;2023-03-04T12:50:14;7.30;1.00
4548;DHT22;2286;51.570;7.090;2023-03-04T12:52:52;7.30;1.00
4548;DHT22;2286;51.570;7.090;2023-03-04T12:55:28;7.30;1.00
4548;DHT22;2286;51.570;7.090;2023-03-04T12:57:57;7.30;1.00
4548;DHT22;2286;51.570;7.090;2023-03-04T13:00:34;7.40;1.00
4548;DHT22;2286;51.570;7.090;2023-03-04T13:03:10;7.60;1.00
4548;DHT22;2286;51.570;7.090;2023-03-04T13:05:54;7.60;1.00
4548;DHT22;2286;51.570;7.090;2023-03-04T13:08:30;7.50;1.00
4548;DHT22;2286;51.570;7.090;2023-03-04T13:11:01;7.30;1.00
4548;DHT22;2286;51.570;7.090;2023-03-04T13:13:37;7.30;1.00
4548;DHT22;2286;51.570;7.090;2023-03-04T13:16:27;7.30;1.00
4548;DHT22;2286;51.570;7.090;2023-03-04T13:18:55;7.30;1.00
4548;DHT22;2286;51.570;7.090;2023-03-04T13:21:24;7.20;1.00
4548;DHT22;2286;51.570;7.090;2023-03-04T13:23:51;7.10;1.00
4548;DHT22;2286;51.570;7.090;2023-03-04T13:26:32;7.10;1.00
4548;DHT22;2286;51.570;7.090;2023-03-04T13:32:01;7.10;1.00
4548;DHT22;2286;51.570;7.090;2023-03-04T13:34:46;7.10;1.00
4548;DHT22;2286;51.570;7.090;2023-03-04T13:37:28;7.20;1.00
4548;DHT22;2286;51.570;7.090;2023-03-04T13:43:27;7.50;1.00
4548;DHT22;2286;51.570;7.090;2023-03-04T13:45:54;7.70;1.00
4548;DHT22;2286;51.570;7.090;2023-03-04T13:48:33;8.00;1.00
4548;DHT22;2286;51.570;7.090;2023-03-04T13:51:02;8.20;1.00
4548;DHT22;2286;51.570;7.090;2023-03-04T13:53:42;8.30;1.00
4548;DHT22;2286;51.570;7.090;2023-03-04T13:56:34;8.30;1.00
4548;DHT22;2286;51.570;7.090;2023-03-04T13:59:12;8.20;1.00
4548;DHT22;2286;51.570;7.090;2023-03-04T14:01:58;8.20;1.00
4548;DHT22;2286;51.570;7.090;2023-03-04T14:04:34;8.00;1.00
4548;DHT22;2286;51.570;7.090;2023-03-04T14:07:03;8.00;99.90
4548;DHT22;2286;51.570;7.090;2023-03-04T14:09:56;8.00;1.00
4548;DHT22;2286;51.570;7.090;2023-03-04T14:12:24;8.00;99.90
4548;DHT22;2286;51.570;7.090;2023-03-04T14:14:54;8.10;99.90
4548;DHT22;2286;51.570;7.090;2023-03-04T14:17:24;8.20;99.90
4548;DHT22;2286;51.570;7.090;2023-03-04T14:19:53;8.40;99.90
4548;DHT22;2286;51.570;7.090;2023-03-04T14:22:23;8.50;99.90
4548;DHT22;2286;51.570;7.090;2023-03-04T14:24:59;8.50;99.90
4548;DHT22;2286;51.570;7.090;2023-03-04T14:27:27;8.40;99.90
4548;DHT22;2286;51.570;7.090;2023-03-04T14:29:55;8.10;99.90
4548;DHT22;2286;51.570;7.090;2023-03-04T14:32:23;8.00;99.90
4548;DHT22;2286;51.570;7.090;2023-03-04T14:34:53;7.90;99.90
4548;DHT22;2286;51.570;7.090;2023-03-04T14:37:23;8.00;99.90
4548;DHT22;2286;51.570;7.090;2023-03-04T14:39:54;8.00;99.90
4548;DHT22;2286;51.570;7.090;2023-03-04T14:42:23;8.00;99.90
4548;DHT22;2286;51.570;7.090;2023-03-04T14:44:54;8.10;99.90
4548;DHT22;2286;51.570;7.090;2023-03-04T14:47:25;8.10;99.90
4548;DHT22;2286;51.570;7.090;2023-03-04T14:49:54;8.10;99.90
4548;DHT22;2286;51.570;7.090;2023-03-04T14:52:36;8.10;99.90
4548;DHT22;2286;51.570;7.090;2023-03-04T14:55:22;8.00;99.90
4548;DHT22;2286;51.570;7.090;2023-03-04T14:57:50;7.90;99.90
4548;DHT22;2286;51.570;7.090;2023-03-04T15:00:30;7.80;99.90
4548;DHT22;2286;51.570;7.090;2023-03-04T15:02:59;7.70;99.90
4548;DHT22;2286;51.570;7.090;2023-03-04T15:05:29;7.60;99.90
4548;DHT22;2286;51.570;7.090;2023-03-04T15:07:58;7.60;99.90
4548;DHT22;2286;51.570;7.090;2023-03-04T15:10:27;7.50;99.90
4548;DHT22;2286;51.570;7.090;2023-03-04T15:12:56;7.50;99.90
4548;DHT22;2286;51.570;7.090;2023-03-04T15:15:40;7.50;99.90
4548;DHT22;2286;51.570;7.090;2023-03-04T15:18:23;7.60;99.90
4548;DHT22;2286;51.570;7.090;2023-03-04T15:21:00;7.60;99.90
4548;DHT22;2286;51.570;7.090;2023-03-04T15:23:28;7.60;99.90
4548;DHT22;2286;51.570;7.090;2023-03-04T15:25:57;7.70;99.90
4548;DHT22;2286;51.570;7.090;2023-03-04T15:28:25;7.80;99.90
4548;DHT22;2286;51.570;7.090;2023-03-04T15:30:54;7.90;99.90
4548;DHT22;2286;51.570;7.090;2023-03-04T15:33:21;7.90;99.90
4548;DHT22;2286;51.570;7.090;2023-03-04T15:35:52;8.00;99.90
4548;DHT22;2286;51.570;7.090;2023-03-04T15:38:22;8.00;99.90
4548;DHT22;2286;51.570;7.090;2023-03-04T15:40:49;8.00;99.90
4548;DHT22;2286;51.570;7.090;2023-03-04T15:43:18;8.00;99.90
4548;DHT22;2286;51.570;7.090;2023-03-04T15:45:46;8.00;99.90
4548;DHT22;2286;51.570;7.090;2023-03-04T15:48:15;8.00;99.90
4548;DHT22;2286;51.570;7.090;2023-03-04T15:50:44;8.00;99.90
4548;DHT22;2286;51.570;7.090;2023-03-04T15:53:15;8.20;99.90
4548;DHT22;2286;51.570;7.090;2023-03-04T15:55:45;8.40;99.90
4548;DHT22;2286;51.570;7.090;2023-03-04T15:58:12;8.80;99.90
4548;DHT22;2286;51.570;7.090;2023-03-04T16:00:39;10.00;99.90
4548;DHT22;2286;51.570;7.090;2023-03-04T16:03:12;10.30;99.90
4548;DHT22;2286;51.570;7.090;2023-03-04T16:05:39;10.00;99.90
4548;DHT22;2286;51.570;7.090;2023-03-04T16:08:09;9.40;99.90
4548;DHT22;2286;51.570;7.090;2023-03-04T16:10:38;8.90;99.90
4548;DHT22;2286;51.570;7.090;2023-03-04T16:13:11;8.40;99.90
4548;DHT22;2286;51.570;7.090;2023-03-04T16:15:39;8.20;99.90
4548;DHT22;2286;51.570;7.090;2023-03-04T16:18:07;8.10;99.90
4548;DHT22;2286;51.570;7.090;2023-03-04T16:20:35;7.90;99.90
4548;DHT22;2286;51.570;7.090;2023-03-04T16:23:02;7.90;99.90
4548;DHT22;2286;51.570;7.090;2023-03-04T16:25:30;7.80;99.90
4548;DHT22;2286;51.570;7.090;2023-03-04T16:27:57;7.70;99.90
4548;DHT22;2286;51.570;7.090;2023-03-04T16:30:29;7.60;99.90
4548;DHT22;2286;51.570;7.090;2023-03-04T16:32:56;7.60;99.90
4548;DHT22;2286;51.570;7.090;2023-03-04T16:35:23;7.50;99.90
4548;DHT22;2286;51.570;7.090;2023-03-04T16:37:52;7.50;99.90
4548;DHT22;2286;51.570;7.090;2023-03-04T16:40:24;7.40;99.90
4548;DHT22;2286;51.570;7.090;2023-03-04T16:42:51;7.40;99.90
4548;DHT22;2286;51.570;7.090;2023-03-04T16:45:20;7.40;99.90